createdAt,value
2018-04-13T00:00:08.818Z,34.43
2018-04-13T00:02:35.037Z,36.63
2018-04-13T00:05:01.278Z,42.07
2018-04-13T00:07:27.779Z,37.33
2018-04-13T00:09:54.016Z,36.60
2018-04-13T00:12:20.238Z,34.13
2018-04-13T00:14:46.481Z,34.77
2018-04-13T00:17:12.700Z,30.87
2018-04-13T00:19:38.930Z,34.07
2018-04-13T00:22:05.158Z,37.80
2018-04-13T00:24:31.427Z,35.57
2018-04-13T00:26:57.645Z,35.13
2018-04-13T00:29:24.081Z,39.63
2018-04-13T00:31:50.325Z,41.47
2018-04-13T00:34:16.610Z,35.80
2018-04-13T00:36:43.592Z,32.10
2018-04-13T00:39:10.236Z,37.00
2018-04-13T00:41:36.475Z,37.03
2018-04-13T00:44:02.709Z,36.60
2018-04-13T00:46:28.936Z,37.90
2018-04-13T00:48:55.919Z,36.40
2018-04-13T00:51:22.129Z,33.80
2018-04-13T00:53:49.098Z,36.77
2018-04-13T00:56:15.360Z,35.80
2018-04-13T00:58:41.578Z,46.37
2018-04-13T01:01:07.789Z,47.50
2018-04-13T01:03:34.049Z,44.53
2018-04-13T01:06:00.278Z,38.23
2018-04-13T01:08:26.508Z,42.37
2018-04-13T01:10:52.741Z,43.80
2018-04-13T01:13:18.953Z,40.80
2018-04-13T01:15:45.195Z,45.10
2018-04-13T01:18:11.424Z,39.27
2018-04-13T01:20:37.652Z,46.73
2018-04-13T01:23:03.881Z,46.30
2018-04-13T01:25:30.543Z,47.70
2018-04-13T01:27:56.790Z,42.07
2018-04-13T01:30:23.748Z,43.93
2018-04-13T01:32:49.976Z,44.03
2018-04-13T01:35:16.217Z,44.70
2018-04-13T01:37:42.424Z,45.57
2018-04-13T01:40:09.744Z,42.40
2018-04-13T01:42:36.700Z,42.07
2018-04-13T01:45:03.658Z,49.30
2018-04-13T01:47:31.066Z,52.40
2018-04-13T01:49:57.284Z,45.47
2018-04-13T01:52:23.508Z,46.20
2018-04-13T01:54:49.757Z,48.60
2018-04-13T01:57:15.968Z,46.23
2018-04-13T01:59:42.190Z,46.23
2018-04-13T02:02:08.460Z,51.67
2018-04-13T02:04:34.737Z,50.97
2018-04-13T02:07:01.684Z,51.20
2018-04-13T02:09:27.895Z,47.40
2018-04-13T02:11:54.850Z,49.70
2018-04-13T02:14:21.833Z,50.60
2018-04-13T02:16:48.119Z,42.83
2018-04-13T02:19:15.063Z,49.73
2018-04-13T02:21:42.024Z,43.93
2018-04-13T02:24:08.989Z,47.03
2018-04-13T02:26:35.940Z,44.93
2018-04-13T02:29:02.401Z,51.77
2018-04-13T02:31:28.646Z,44.43
2018-04-13T02:33:54.867Z,52.10
2018-04-13T02:36:21.161Z,51.73
2018-04-13T02:38:47.366Z,55.57
2018-04-13T02:41:14.306Z,54.50
2018-04-13T02:43:41.278Z,48.57
2018-04-13T02:46:07.492Z,47.70
2018-04-13T02:48:33.785Z,48.67
2018-04-13T02:51:00.021Z,51.43
2018-04-13T02:53:26.234Z,48.37
2018-04-13T02:55:52.448Z,52.53
2018-04-13T02:58:18.680Z,50.47
2018-04-13T03:00:44.896Z,49.80
2018-04-13T03:03:11.125Z,48.63
2018-04-13T03:05:37.385Z,43.77
2018-04-13T03:08:03.639Z,45.20
2018-04-13T03:10:29.920Z,43.43
2018-04-13T03:12:56.156Z,47.13
2018-04-13T03:15:22.432Z,49.70
2018-04-13T03:17:49.414Z,47.90
2018-04-13T03:20:15.634Z,46.87
2018-04-13T03:22:41.971Z,42.63
2018-04-13T03:25:08.200Z,48.40
2018-04-13T03:27:34.466Z,47.17
2018-04-13T03:30:00.688Z,45.80
2018-04-13T03:32:26.932Z,46.63
2018-04-13T03:34:53.185Z,49.90
2018-04-13T03:37:19.397Z,44.20
2018-04-13T03:39:45.619Z,47.40
2018-04-13T03:42:11.891Z,48.50
2018-04-13T03:44:38.153Z,52.50
2018-04-13T03:47:04.780Z,48.83
2018-04-13T03:49:30.971Z,49.53
2018-04-13T03:51:57.919Z,49.57
2018-04-13T03:54:24.916Z,50.10
2018-04-13T03:56:51.126Z,48.60
2018-04-13T03:59:17.388Z,49.10
2018-04-13T04:01:43.633Z,50.17
2018-04-13T04:04:09.860Z,55.23
2018-04-13T04:06:36.104Z,49.40
2018-04-13T04:09:03.164Z,47.03
2018-04-13T04:11:30.138Z,46.73
2018-04-13T04:13:56.373Z,46.50
2018-04-13T04:16:22.674Z,53.87
2018-04-13T04:18:48.904Z,54.20
2018-04-13T04:21:27.322Z,55.60
2018-04-13T04:24:05.830Z,47.87
2018-04-13T04:26:46.229Z,51.37
2018-04-13T04:29:12.485Z,50.13
2018-04-13T04:31:38.877Z,51.10
2018-04-13T04:34:05.089Z,53.03
2018-04-13T04:36:31.315Z,54.27
2018-04-13T04:38:58.280Z,55.03
2018-04-13T04:41:24.479Z,58.73
2018-04-13T04:43:54.853Z,54.23
2018-04-13T04:46:25.129Z,54.40
2018-04-13T04:48:52.258Z,59.57
2018-04-13T04:51:18.688Z,52.23
2018-04-13T04:53:44.911Z,54.43
2018-04-13T04:56:11.108Z,52.07
2018-04-13T04:58:37.597Z,56.87
2018-04-13T05:01:03.823Z,54.47
2018-04-13T05:03:30.048Z,55.20
2018-04-13T05:05:56.359Z,56.47
2018-04-13T05:08:22.619Z,57.37
2018-04-13T05:10:49.567Z,56.27
2018-04-13T05:13:16.536Z,58.13
2018-04-13T05:15:42.862Z,54.33
2018-04-13T05:18:09.089Z,59.47
2018-04-13T05:20:35.322Z,57.03
2018-04-13T05:23:01.686Z,55.97
2018-04-13T05:25:27.904Z,57.40
2018-04-13T05:27:54.396Z,52.30
2018-04-13T05:30:21.405Z,53.80
2018-04-13T05:32:47.623Z,53.37
2018-04-13T05:35:13.936Z,50.13
2018-04-13T05:37:40.938Z,58.20
2018-04-13T05:40:07.208Z,53.17
2018-04-13T05:42:33.506Z,64.10
2018-04-13T05:44:59.710Z,57.23
2018-04-13T05:47:25.971Z,62.90
2018-04-13T05:49:52.295Z,57.67
2018-04-13T05:52:18.504Z,63.60
2018-04-13T05:54:44.755Z,64.00
2018-04-13T05:57:11.875Z,60.87
2018-04-13T05:59:38.346Z,57.43
2018-04-13T06:02:05.514Z,61.60
2018-04-13T06:04:31.721Z,63.27
2018-04-13T06:06:58.785Z,54.77
2018-04-13T06:09:25.760Z,61.40
2018-04-13T06:11:52.100Z,65.93
2018-04-13T06:14:18.320Z,70.27
2018-04-13T06:16:44.755Z,60.03
2018-04-13T06:19:10.963Z,57.67
2018-04-13T06:21:37.240Z,60.80
2018-04-13T06:24:03.491Z,59.60
2018-04-13T06:26:29.780Z,59.33
2018-04-13T06:28:55.978Z,66.27
2018-04-13T06:31:22.241Z,56.77
2018-04-13T06:33:48.469Z,59.53
2018-04-13T06:36:14.712Z,65.33
2018-04-13T06:38:41.004Z,60.20
2018-04-13T06:41:07.239Z,59.40
2018-04-13T06:43:33.489Z,53.43
2018-04-13T06:45:59.710Z,66.67
2018-04-13T06:48:26.063Z,61.93
2018-04-13T06:50:52.574Z,65.90
2018-04-13T06:53:18.795Z,62.93
2018-04-13T06:55:45.007Z,55.73
2018-04-13T06:58:11.978Z,67.07
2018-04-13T07:00:38.214Z,57.60
2018-04-13T07:03:04.684Z,59.57
2018-04-13T07:05:31.644Z,64.30
2018-04-13T07:07:57.914Z,66.43
2018-04-13T07:10:24.188Z,73.50
2018-04-13T07:12:50.451Z,69.10
2018-04-13T07:15:17.407Z,66.53
2018-04-13T07:17:43.921Z,74.77
2018-04-13T07:20:10.875Z,71.13
2018-04-13T07:22:37.111Z,70.13
2018-04-13T07:25:03.576Z,71.97
2018-04-13T07:27:29.843Z,66.83
2018-04-13T07:29:57.573Z,67.40
2018-04-13T07:32:24.806Z,69.40
2018-04-13T07:34:50.584Z,67.80
2018-04-13T07:37:16.801Z,67.90
2018-04-13T07:39:43.012Z,60.50
2018-04-13T07:42:09.220Z,63.50
2018-04-13T07:44:35.519Z,60.40
2018-04-13T07:47:02.485Z,57.33
2018-04-13T07:49:28.730Z,61.83
2018-04-13T07:51:54.931Z,59.67
2018-04-13T07:54:21.896Z,55.33
2018-04-13T07:56:48.153Z,57.87
2018-04-13T07:59:14.388Z,61.03
2018-04-13T08:01:40.741Z,54.77
2018-04-13T08:04:06.916Z,54.07
2018-04-13T08:06:33.148Z,60.00
2018-04-13T08:08:59.360Z,65.70
2018-04-13T08:11:26.117Z,58.77
2018-04-13T08:13:52.371Z,60.40
2018-04-13T08:16:18.661Z,65.67
2018-04-13T08:18:44.907Z,66.90
2018-04-13T08:21:11.187Z,67.57
2018-04-13T08:23:38.221Z,73.87
2018-04-13T08:26:04.473Z,64.60
2018-04-13T08:28:31.945Z,66.83
2018-04-13T08:30:58.421Z,72.40
2018-04-13T08:33:25.130Z,76.47
2018-04-13T08:35:51.952Z,68.83
2018-04-13T08:38:18.923Z,69.27
2018-04-13T08:40:45.141Z,65.87
2018-04-13T08:43:12.201Z,71.33
2018-04-13T08:45:39.260Z,69.17
2018-04-13T08:48:05.660Z,76.27
2018-04-13T08:50:32.734Z,64.80
2018-04-13T08:52:59.079Z,63.03
2018-04-13T08:55:25.617Z,66.10
2018-04-13T08:57:51.869Z,72.50
2018-04-13T09:00:18.083Z,68.70
2018-04-13T09:02:44.500Z,63.77
2018-04-13T09:05:10.705Z,68.40
2018-04-13T09:07:37.677Z,64.03
2018-04-13T09:10:04.396Z,48.57
2018-04-13T09:12:31.348Z,54.83
2018-04-13T09:14:57.609Z,63.20
2018-04-13T09:17:23.876Z,63.03
2018-04-13T09:19:50.212Z,61.80
2018-04-13T09:22:16.480Z,64.83
2018-04-13T09:24:42.712Z,66.33
2018-04-13T09:27:08.932Z,63.77
2018-04-13T09:29:35.293Z,54.37
2018-04-13T09:32:02.341Z,60.37
2018-04-13T09:34:28.861Z,59.20
2018-04-13T09:36:55.168Z,54.30
2018-04-13T09:39:21.391Z,53.67
2018-04-13T09:41:48.405Z,57.43
2018-04-13T09:44:14.627Z,64.40
2018-04-13T09:46:40.903Z,61.73
2018-04-13T09:49:07.320Z,63.50
2018-04-13T09:51:34.280Z,61.60
2018-04-13T09:54:01.230Z,61.07
2018-04-13T09:56:27.481Z,56.97
2018-04-13T09:58:53.916Z,57.57
2018-04-13T10:01:20.164Z,58.50
2018-04-13T10:03:49.287Z,62.97
2018-04-13T10:06:15.899Z,55.80
2018-04-13T10:08:42.113Z,61.33
2018-04-13T10:11:08.375Z,58.83
2018-04-13T10:13:34.770Z,58.60
2018-04-13T10:16:01.024Z,62.53
2018-04-13T10:18:27.328Z,61.77
2018-04-13T10:20:53.824Z,69.30
2018-04-13T10:23:21.314Z,65.33
2018-04-13T10:25:47.554Z,57.73
2018-04-13T10:28:13.850Z,62.00
2018-04-13T10:30:40.848Z,58.17
2018-04-13T10:33:07.077Z,66.83
2018-04-13T10:38:25.236Z,62.77
2018-04-13T10:40:51.585Z,56.17
2018-04-13T10:43:17.846Z,66.07
2018-04-13T10:45:44.869Z,64.50
2018-04-13T10:48:11.096Z,57.63
2018-04-13T10:50:37.377Z,58.80
2018-04-13T10:53:03.602Z,56.07
2018-04-13T10:55:29.945Z,61.73
2018-04-13T10:57:56.185Z,61.20
2018-04-13T11:00:22.400Z,63.17
2018-04-13T11:02:48.607Z,57.10
2018-04-13T11:05:22.521Z,63.70
2018-04-13T11:07:49.675Z,58.93
2018-04-13T11:10:16.202Z,57.60
2018-04-13T11:12:42.422Z,60.73
2018-04-13T11:15:09.952Z,54.13
2018-04-13T11:17:36.151Z,55.13
2018-04-13T11:20:02.475Z,59.70
2018-04-13T11:22:28.726Z,63.70
2018-04-13T11:24:55.006Z,57.50
2018-04-13T11:27:22.906Z,58.93
2018-04-13T11:29:49.272Z,62.00
2018-04-13T11:32:16.296Z,64.23
2018-04-13T11:34:42.538Z,60.60
2018-04-13T11:37:08.860Z,52.80
2018-04-13T11:39:35.125Z,54.73
2018-04-13T11:42:01.334Z,57.47
2018-04-13T11:44:28.615Z,60.63
2018-04-13T11:46:56.779Z,66.03
2018-04-13T11:49:23.024Z,63.30
2018-04-13T11:51:50.222Z,54.90
2018-04-13T11:54:16.468Z,58.20
2018-04-13T11:56:42.713Z,62.70
2018-04-13T11:59:09.746Z,58.87
2018-04-13T12:01:36.028Z,56.07
2018-04-13T12:04:02.264Z,65.07
2018-04-13T12:06:28.671Z,57.77
2018-04-13T12:08:55.637Z,61.10
2018-04-13T12:11:21.961Z,67.17
2018-04-13T12:13:49.042Z,61.87
2018-04-13T12:16:15.301Z,63.20
2018-04-13T12:18:42.221Z,58.37
2018-04-13T12:21:08.444Z,63.97
2018-04-13T12:23:34.689Z,64.30
2018-04-13T12:26:01.160Z,62.83
2018-04-13T12:28:28.346Z,63.93
2018-04-13T12:30:54.718Z,63.00
2018-04-13T12:33:20.985Z,69.27
2018-04-13T12:36:17.840Z,72.67
2018-04-13T12:38:47.105Z,61.73
2018-04-13T12:41:13.577Z,68.57
2018-04-13T12:43:40.587Z,68.03
2018-04-13T12:46:07.228Z,70.53
2018-04-13T12:48:33.560Z,67.70
2018-04-13T12:51:01.514Z,77.23
2018-04-13T12:53:28.133Z,75.77
2018-04-13T12:55:54.444Z,72.83
2018-04-13T12:58:20.703Z,72.73
2018-04-13T13:00:46.947Z,76.67
2018-04-13T13:03:13.152Z,74.27
2018-04-13T13:05:39.402Z,81.70
2018-04-13T13:08:05.631Z,81.33
2018-04-13T13:10:31.922Z,71.37
2018-04-13T13:12:58.123Z,73.47
2018-04-13T13:15:25.105Z,71.57
2018-04-13T13:17:51.344Z,67.37
2018-04-13T13:20:17.617Z,69.63
2018-04-13T13:22:43.913Z,77.03
2018-04-13T13:25:10.155Z,71.33
2018-04-13T13:27:36.507Z,71.17
2018-04-13T13:30:02.814Z,72.73
2018-04-13T13:32:29.124Z,64.37
2018-04-13T13:34:55.618Z,59.80
2018-04-13T13:37:22.824Z,66.20
2018-04-13T13:39:49.041Z,64.30
2018-04-13T13:42:15.299Z,66.37
2018-04-13T13:44:45.745Z,66.67
2018-04-13T13:47:12.276Z,64.40
2018-04-13T13:49:38.546Z,68.23
2018-04-13T13:52:04.743Z,69.83
2018-04-13T13:54:30.999Z,71.87
2018-04-13T13:56:57.952Z,72.47
2018-04-13T13:59:24.321Z,74.17
2018-04-13T14:01:50.733Z,85.97
2018-04-13T14:04:17.129Z,84.70
2018-04-13T14:06:44.121Z,73.67
2018-04-13T14:09:10.364Z,82.20
2018-04-13T14:11:36.583Z,82.03
2018-04-13T14:14:03.048Z,84.73
2018-04-13T14:16:29.456Z,75.87
2018-04-13T14:18:55.788Z,80.57
2018-04-13T14:21:22.817Z,86.70
2018-04-13T14:23:49.052Z,75.17
2018-04-13T14:26:15.308Z,76.10
2018-04-13T14:28:41.525Z,81.00
2018-04-13T14:31:07.834Z,78.57
2018-04-13T14:33:34.085Z,76.97
2018-04-13T14:36:00.402Z,73.97
2018-04-13T14:38:26.664Z,71.50
2018-04-13T14:40:53.063Z,74.03
2018-04-13T14:43:19.368Z,77.10
2018-04-13T14:45:45.714Z,69.60
2018-04-13T14:48:11.947Z,72.43
2018-04-13T14:50:38.172Z,68.67
2018-04-13T14:53:04.782Z,70.30
2018-04-13T14:55:31.789Z,72.20
2018-04-13T14:57:58.020Z,71.33
2018-04-13T15:00:24.349Z,70.07
2018-04-13T15:02:50.623Z,65.87
2018-04-13T15:05:17.697Z,64.27
2018-04-13T15:07:44.057Z,64.13
2018-04-13T15:10:10.362Z,66.50
2018-04-13T15:12:36.672Z,64.83
2018-04-13T15:15:03.798Z,70.77
2018-04-13T15:17:30.822Z,63.53
2018-04-13T15:19:57.121Z,70.20
2018-04-13T15:22:23.396Z,67.90
2018-04-13T15:24:49.744Z,66.60
2018-04-13T15:27:15.975Z,69.53
2018-04-13T15:29:42.210Z,69.23
2018-04-13T15:32:09.213Z,72.60
2018-04-13T15:34:35.479Z,70.73
2018-04-13T15:37:01.732Z,71.60
2018-04-13T15:39:28.765Z,68.43
2018-04-13T15:41:55.833Z,66.37
2018-04-13T15:44:22.481Z,78.80
2018-04-13T15:46:48.728Z,69.83
2018-04-13T15:49:15.028Z,77.87
2018-04-13T15:51:41.353Z,70.37
2018-04-13T15:54:08.382Z,79.00
2018-04-13T15:56:34.640Z,68.17
2018-04-13T15:59:01.032Z,73.00
2018-04-13T16:01:27.425Z,72.67
2018-04-13T16:03:53.720Z,71.03
2018-04-13T16:06:20.705Z,77.57
2018-04-13T16:08:46.982Z,78.20
2018-04-13T16:11:14.379Z,81.60
2018-04-13T16:13:40.680Z,75.23
2018-04-13T16:16:07.702Z,75.83
2018-04-13T16:18:34.035Z,72.20
2018-04-13T16:21:00.337Z,72.70
2018-04-13T16:23:26.592Z,71.10
2018-04-13T16:25:53.639Z,71.43
2018-04-13T16:28:19.865Z,75.90
2018-04-13T16:30:46.089Z,83.37
2018-04-13T16:33:12.860Z,80.57
2018-04-13T16:35:39.892Z,75.23
2018-04-13T16:38:06.147Z,74.53
2018-04-13T16:40:33.152Z,70.87
2018-04-13T16:42:59.385Z,72.70
2018-04-13T16:45:25.979Z,67.73
2018-04-13T16:47:52.252Z,66.20
2018-04-13T16:50:18.890Z,61.27
2018-04-13T16:52:45.155Z,67.13
2018-04-13T16:55:12.203Z,63.13
2018-04-13T16:57:39.276Z,69.20
2018-04-13T17:00:05.581Z,72.40
2018-04-13T17:02:32.559Z,76.63
2018-04-13T17:04:58.821Z,77.30
2018-04-13T17:07:25.133Z,78.90
2018-04-13T17:09:51.402Z,81.47
2018-04-13T17:12:17.668Z,76.00
2018-04-13T17:14:44.036Z,84.03
2018-04-13T17:17:10.282Z,84.57
2018-04-13T17:19:36.661Z,79.67
2018-04-13T17:22:02.969Z,73.13
2018-04-13T17:24:30.059Z,83.87
2018-04-13T17:26:56.389Z,86.20
2018-04-13T17:29:22.669Z,93.90
2018-04-13T17:31:49.191Z,85.67
2018-04-13T17:34:15.510Z,84.17
2018-04-13T17:36:41.847Z,86.47
2018-04-13T17:39:08.505Z,81.70
2018-04-13T17:41:34.752Z,85.37
2018-04-13T17:44:01.816Z,89.73
2018-04-13T17:46:28.095Z,76.53
2018-04-13T17:48:54.374Z,93.80
2018-04-13T17:51:20.656Z,90.87
2018-04-13T17:53:46.973Z,87.40
2018-04-13T17:56:15.717Z,86.83
2018-04-13T17:58:42.724Z,85.57
2018-04-13T18:01:09.124Z,78.40
2018-04-13T18:03:35.421Z,78.03
2018-04-13T18:06:02.413Z,81.50
2018-04-13T18:08:28.852Z,86.33
2018-04-13T18:10:55.273Z,87.17
2018-04-13T18:13:21.581Z,80.63
2018-04-13T18:15:48.553Z,80.97
2018-04-13T18:18:14.807Z,74.30
2018-04-13T18:20:41.147Z,77.40
2018-04-13T18:23:07.406Z,77.90
2018-04-13T18:25:34.460Z,75.60
2018-04-13T18:28:01.581Z,78.93
2018-04-13T18:30:28.704Z,78.77
2018-04-13T18:32:54.968Z,78.67
2018-04-13T18:35:21.965Z,79.43
2018-04-13T18:37:48.240Z,87.87
2018-04-13T18:40:14.548Z,91.80
2018-04-13T18:42:41.492Z,96.13
2018-04-13T18:45:07.811Z,84.67
2018-04-13T18:47:34.538Z,89.07
2018-04-13T18:50:00.931Z,93.03
2018-04-13T18:52:27.305Z,89.20
2018-04-13T18:54:54.362Z,90.37
2018-04-13T18:57:20.615Z,83.40
2018-04-13T18:59:46.970Z,80.87
2018-04-13T19:02:13.361Z,82.10
2018-04-13T19:04:39.603Z,86.20
2018-04-13T19:07:06.029Z,81.97
2018-04-13T19:09:32.289Z,84.03
2018-04-13T19:11:58.531Z,71.87
2018-04-13T19:14:24.803Z,77.50
2018-04-13T19:16:52.033Z,80.30
2018-04-13T19:19:19.201Z,90.57
2018-04-13T19:21:47.744Z,82.70
2018-04-13T19:24:15.448Z,78.83
2018-04-13T19:26:42.552Z,74.37
2018-04-13T19:29:09.517Z,76.57
2018-04-13T19:31:40.021Z,73.20
2018-04-13T19:34:25.466Z,88.07
2018-04-13T19:36:55.098Z,77.00
2018-04-13T19:39:21.406Z,79.27
2018-04-13T19:41:48.184Z,82.53
2018-04-13T19:44:28.667Z,78.90
2018-04-13T19:46:55.012Z,78.23
2018-04-13T19:49:21.977Z,74.13
2018-04-13T19:51:48.203Z,77.87
2018-04-13T19:54:17.844Z,74.70
2018-04-13T19:56:44.083Z,71.47
2018-04-13T19:59:10.354Z,79.83
2018-04-13T20:01:37.472Z,67.37
2018-04-13T20:04:03.881Z,68.60
2018-04-13T20:06:30.225Z,62.20
2018-04-13T20:08:56.482Z,58.20
2018-04-13T20:11:22.709Z,61.43
2018-04-13T20:13:48.950Z,54.60
2018-04-13T20:16:21.070Z,71.37
2018-04-13T20:18:47.393Z,72.97
2018-04-13T20:21:13.640Z,72.23
2018-04-13T20:23:39.909Z,75.83
2018-04-13T20:26:06.237Z,87.17
2018-04-13T20:28:33.276Z,98.53
2018-04-13T20:30:59.522Z,92.70
2018-04-13T20:33:26.557Z,93.57
2018-04-13T20:35:52.802Z,96.07
2018-04-13T20:38:19.887Z,104.30
2018-04-13T20:40:46.186Z,99.03
2018-04-13T20:43:13.159Z,84.50
2018-04-13T20:45:39.498Z,94.83
2018-04-13T20:48:05.957Z,91.30
2018-04-13T20:50:32.220Z,85.73
2018-04-13T20:52:59.190Z,93.93
2018-04-13T20:55:25.407Z,84.53
2018-04-13T20:57:52.376Z,101.90
2018-04-13T21:00:19.072Z,91.00
2018-04-13T21:02:52.244Z,93.03
2018-04-13T21:05:18.495Z,84.87
2018-04-13T21:07:44.733Z,92.77
2018-04-13T21:10:11.772Z,93.03
2018-04-13T21:12:38.077Z,97.53
2018-04-13T21:15:04.395Z,82.87
2018-04-13T21:17:30.601Z,97.87
2018-04-13T21:19:56.826Z,92.03
2018-04-13T21:22:23.085Z,90.30
2018-04-13T21:24:49.360Z,89.23
2018-04-13T21:27:16.081Z,92.53
2018-04-13T21:29:42.392Z,98.80
2018-04-13T21:32:08.696Z,101.83
2018-04-13T21:34:34.949Z,110.10
2018-04-13T21:37:01.255Z,104.40
2018-04-13T21:39:27.544Z,114.27
2018-04-13T21:41:53.856Z,115.47
2018-04-13T21:44:20.172Z,106.37
2018-04-13T21:46:46.458Z,102.43
2018-04-13T21:49:12.833Z,110.50
2018-04-13T21:51:39.120Z,110.23
2018-04-13T21:54:06.106Z,104.90
2018-04-13T21:56:32.380Z,106.57
2018-04-13T21:58:58.634Z,110.37
2018-04-13T22:01:24.886Z,111.97
2018-04-13T22:03:51.119Z,119.27
2018-04-13T22:06:17.352Z,103.27
2018-04-13T22:08:43.591Z,104.47
2018-04-13T22:11:09.811Z,109.63
2018-04-13T22:13:36.033Z,94.73
2018-04-13T22:16:02.291Z,101.60
2018-04-13T22:18:28.621Z,91.47
2018-04-13T22:20:54.863Z,86.47
2018-04-13T22:23:21.091Z,101.73
2018-04-13T22:25:47.320Z,91.73
2018-04-13T22:28:13.620Z,81.83
2018-04-13T22:30:40.620Z,83.20
2018-04-13T22:33:07.702Z,77.30
2018-04-13T22:35:33.931Z,84.53
2018-04-13T22:38:00.301Z,78.07
2018-04-13T22:40:26.536Z,75.43
2018-04-13T22:42:52.812Z,77.40
2018-04-13T22:45:19.053Z,79.43
2018-04-13T22:47:45.281Z,72.43
2018-04-13T22:50:11.659Z,76.10
2018-04-13T22:52:37.832Z,80.07
2018-04-13T22:55:04.179Z,74.33
2018-04-13T22:57:30.422Z,84.23
2018-04-13T22:59:56.664Z,67.40
2018-04-13T23:02:22.904Z,68.87
2018-04-13T23:04:49.189Z,65.37
2018-04-13T23:07:15.426Z,72.83
2018-04-13T23:09:41.648Z,72.73
2018-04-13T23:12:07.945Z,66.10
2018-04-13T23:14:34.940Z,60.70
2018-04-13T23:17:01.164Z,65.47
2018-04-13T23:19:27.559Z,63.90
2018-04-13T23:21:54.541Z,71.77
2018-04-13T23:24:20.815Z,52.17
2018-04-13T23:26:47.041Z,65.20
2018-04-13T23:29:13.373Z,51.73
2018-04-13T23:31:39.657Z,61.10
2018-04-13T23:34:05.938Z,58.87
2018-04-13T23:36:32.186Z,63.33
2018-04-13T23:38:59.227Z,57.10
2018-04-13T23:41:26.265Z,63.80
2018-04-13T23:43:53.269Z,54.97
2018-04-13T23:46:19.538Z,53.90
2018-04-13T23:48:45.796Z,48.97
2018-04-13T23:51:12.783Z,55.67
2018-04-13T23:53:39.028Z,49.13
2018-04-13T23:56:05.303Z,51.70
2018-04-13T23:58:31.615Z,41.17
